Webster Mills, Pennsylvania
Current Conditions -  °F | °C
As of 5:53 PM on Tuesday 21 Oct 2014 (Local Time) from KHGR Reporting Station
Light Rain Light Rain  
Wind Chill: 53°   Ceiling: 8000
Heat Index: 53°   Visibility: 10mi
Dew Point: 49°   Wind: 12mph
Humidity: 86%   Direction: 320°NW
Pressure: 29.87"   Gusts: NA
Location:  39.973°N, 77.9661°W
Report Text: KHGR 212153Z 32010KT 10SM -RA SCT060 OVC080 12/09 A2987 RMK AO2 SLP126 P0002 T01170094
Loading
Personal Weather Stations






























Interactive Weather Map New forecast layout! Learn more

10-Day Weather Forecast

Advertisements
Track Severe Weather on mobile